createdAt,value
2023-01-02T00:00:33.347Z,97.11
2023-01-02T00:03:00.762Z,96.62
2023-01-02T00:05:28.439Z,96.60
2023-01-02T00:07:55.971Z,95.24
2023-01-02T00:10:23.309Z,96.12
2023-01-02T00:12:50.631Z,96.38
2023-01-02T00:15:19.390Z,97.62
2023-01-02T00:17:46.730Z,98.31
2023-01-02T00:20:14.246Z,98.59
2023-01-02T00:22:41.595Z,99.64
2023-01-02T00:25:10.442Z,99.91
2023-01-02T00:27:37.809Z,100.00
2023-01-02T00:30:06.103Z,99.64
2023-01-02T00:32:34.844Z,99.49
2023-01-02T00:35:02.322Z,99.92
2023-01-02T00:37:29.657Z,99.72
2023-01-02T00:39:56.992Z,100.00
2023-01-02T00:42:24.346Z,100.00
2023-01-02T00:44:51.684Z,100.00
2023-01-02T00:47:19.029Z,100.00
2023-01-02T00:49:47.670Z,100.00
2023-01-02T00:52:15.011Z,100.00
2023-01-02T00:54:42.346Z,100.00
2023-01-02T00:57:09.685Z,100.00
2023-01-02T00:59:38.479Z,100.00
2023-01-02T01:02:06.020Z,100.00
2023-01-02T01:04:33.787Z,100.00
2023-01-02T01:07:02.630Z,100.00
2023-01-02T01:09:30.055Z,100.00
2023-01-02T01:11:57.437Z,100.00
2023-01-02T01:14:24.936Z,100.00
2023-01-02T01:16:52.287Z,100.00
2023-01-02T01:19:19.625Z,100.00
2023-01-02T01:21:46.957Z,100.00
2023-01-02T01:24:16.250Z,100.00
2023-01-02T01:26:43.595Z,100.00
2023-01-02T01:29:10.962Z,100.00
2023-01-02T01:31:38.379Z,100.00
2023-01-02T01:34:05.767Z,100.00
2023-01-02T01:36:33.136Z,100.00
2023-01-02T01:39:00.473Z,100.00
2023-01-02T01:41:29.194Z,100.00
2023-01-02T01:43:58.096Z,100.00
2023-01-02T01:46:28.259Z,100.00
2023-01-02T01:48:59.961Z,100.00
2023-01-02T01:51:28.532Z,100.00
2023-01-02T01:54:01.459Z,100.00
2023-01-02T01:56:30.150Z,100.00
2023-01-02T01:58:57.535Z,100.00
2023-01-02T02:01:25.088Z,100.00
2023-01-02T02:03:52.577Z,100.00
2023-01-02T02:06:20.337Z,100.00
2023-01-02T02:08:53.049Z,100.00
2023-01-02T02:11:20.937Z,100.00
2023-01-02T02:13:50.148Z,100.00
2023-01-02T02:16:26.404Z,100.00
2023-01-02T02:19:05.089Z,100.00
2023-01-02T02:21:48.282Z,100.00
2023-01-02T02:24:48.918Z,100.00
2023-01-02T02:27:31.387Z,100.00
2023-01-02T02:30:17.863Z,100.00
2023-01-02T02:33:08.221Z,100.00
2023-01-02T02:35:48.562Z,100.00
2023-01-02T02:38:22.546Z,100.00
2023-01-02T02:40:57.523Z,100.00
2023-01-02T02:43:30.474Z,100.00
2023-01-02T02:46:04.367Z,100.00
2023-01-02T02:48:46.395Z,100.00
2023-01-02T02:51:16.931Z,100.00
2023-01-02T02:53:45.509Z,100.00
2023-01-02T02:56:14.714Z,100.00
2023-01-02T02:58:43.214Z,100.00
2023-01-02T03:01:15.697Z,100.00
2023-01-02T03:03:43.752Z,100.00
2023-01-02T03:06:22.305Z,100.00
2023-01-02T03:08:57.047Z,100.00
2023-01-02T03:11:28.893Z,100.00
2023-01-02T03:14:04.658Z,100.00
2023-01-02T03:16:38.831Z,100.00
2023-01-02T03:19:08.418Z,100.00
2023-01-02T03:21:37.235Z,100.00
2023-01-02T03:24:07.593Z,100.00
2023-01-02T03:26:35.926Z,100.00
2023-01-02T03:29:05.262Z,100.00
2023-01-02T03:31:35.729Z,100.00
2023-01-02T03:34:07.734Z,100.00
2023-01-02T03:36:35.709Z,100.00
2023-01-02T03:39:06.879Z,100.00
2023-01-02T03:41:37.572Z,100.00
2023-01-02T03:44:07.085Z,100.00
2023-01-02T03:46:39.402Z,100.00
2023-01-02T03:49:08.152Z,100.00
2023-01-02T03:51:35.844Z,100.00
2023-01-02T03:54:03.954Z,100.00
2023-01-02T03:56:38.910Z,100.00
2023-01-02T03:59:09.303Z,100.00
2023-01-02T04:01:41.979Z,100.00
2023-01-02T04:04:12.827Z,100.00
2023-01-02T04:06:42.806Z,100.00
2023-01-02T04:09:11.650Z,100.00
2023-01-02T04:11:41.664Z,100.00
2023-01-02T04:14:13.186Z,100.00
2023-01-02T04:16:42.388Z,100.00
2023-01-02T04:19:14.125Z,100.00
2023-01-02T04:21:42.527Z,100.00
2023-01-02T04:24:13.895Z,100.00
2023-01-02T04:26:43.804Z,100.00
2023-01-02T04:29:11.182Z,100.00
2023-01-02T04:31:45.183Z,100.00
2023-01-02T04:34:14.662Z,100.00
2023-01-02T04:36:42.510Z,100.00
2023-01-02T04:39:10.270Z,100.00
2023-01-02T04:41:38.669Z,100.00
2023-01-02T04:44:06.417Z,100.00
2023-01-02T04:46:34.093Z,100.00
2023-01-02T04:49:02.810Z,100.00
2023-01-02T04:51:30.146Z,100.00
2023-01-02T04:53:57.473Z,100.00
2023-01-02T04:56:24.826Z,100.00
2023-01-02T04:58:52.792Z,100.00
2023-01-02T05:01:21.955Z,100.00
2023-01-02T05:03:51.242Z,100.00
2023-01-02T05:06:20.029Z,100.00
2023-01-02T05:08:47.390Z,100.00
2023-01-02T05:11:16.449Z,100.00
2023-01-02T05:13:43.846Z,100.00
2023-01-02T05:16:11.955Z,100.00
2023-01-02T05:18:39.364Z,100.00
2023-01-02T05:21:29.571Z,100.00
2023-01-02T05:23:58.583Z,100.00
2023-01-02T05:26:26.167Z,100.00
2023-01-02T05:28:53.912Z,100.00
2023-01-02T05:31:21.653Z,100.00
2023-01-02T05:33:51.783Z,100.00
2023-01-02T05:36:19.148Z,100.00
2023-01-02T05:38:46.521Z,100.00
2023-01-02T05:41:15.277Z,100.00
2023-01-02T05:43:42.769Z,100.00
2023-01-02T05:46:11.236Z,100.00
2023-01-02T05:48:38.946Z,100.00
2023-01-02T05:51:07.547Z,100.00
2023-01-02T05:53:35.318Z,100.00
2023-01-02T05:56:07.131Z,100.00
2023-01-02T05:58:36.625Z,100.00
2023-01-02T06:01:05.607Z,100.00
2023-01-02T06:03:32.985Z,100.00
2023-01-02T06:06:04.436Z,100.00
2023-01-02T06:08:31.919Z,100.00
2023-01-02T06:10:59.307Z,100.00
2023-01-02T06:13:26.858Z,100.00
2023-01-02T06:15:56.614Z,100.00
2023-01-02T06:18:24.417Z,100.00
2023-01-02T06:20:51.970Z,100.00
2023-01-02T06:23:19.850Z,100.00
2023-01-02T06:25:47.171Z,100.00
2023-01-02T06:28:14.601Z,100.00
2023-01-02T06:30:41.950Z,100.00
2023-01-02T06:33:10.637Z,100.00
2023-01-02T06:35:38.114Z,100.00
2023-01-02T06:38:05.497Z,100.00
2023-01-02T06:40:32.849Z,100.00
2023-01-02T06:43:00.560Z,100.00
2023-01-02T06:45:28.067Z,100.00
2023-01-02T06:47:58.382Z,100.00
2023-01-02T06:50:32.968Z,100.00
2023-01-02T06:53:02.360Z,100.00
2023-01-02T06:55:29.721Z,100.00
2023-01-02T06:57:57.062Z,100.00
2023-01-02T07:00:24.440Z,100.00
2023-01-02T07:02:51.960Z,100.00
2023-01-02T07:05:24.459Z,100.00
2023-01-02T07:07:53.543Z,100.00
2023-01-02T07:10:20.925Z,100.00
2023-01-02T07:12:48.371Z,100.00
2023-01-02T07:15:16.035Z,100.00
2023-01-02T07:17:43.394Z,100.00
2023-01-02T07:20:11.580Z,100.00
2023-01-02T07:22:38.990Z,100.00
2023-01-02T07:25:08.983Z,100.00
2023-01-02T07:27:36.370Z,100.00
2023-01-02T07:30:03.886Z,100.00
2023-01-02T07:32:31.328Z,100.00
2023-01-02T07:34:59.026Z,100.00
2023-01-02T07:37:26.715Z,100.00
2023-01-02T07:39:54.113Z,100.00
2023-01-02T07:42:22.858Z,100.00
2023-01-02T07:44:50.260Z,100.00
2023-01-02T07:47:17.592Z,100.00
2023-01-02T07:49:45.143Z,100.00
2023-01-02T07:52:12.748Z,100.00
2023-01-02T07:54:40.093Z,100.00
2023-01-02T07:57:07.506Z,100.00
2023-01-02T07:59:36.238Z,100.00
2023-01-02T08:02:03.657Z,100.00
2023-01-02T08:04:31.162Z,100.00
2023-01-02T08:06:58.551Z,100.00
2023-01-02T08:09:27.021Z,100.00
2023-01-02T08:11:54.388Z,100.00
2023-01-02T08:14:23.607Z,100.00
2023-01-02T08:16:52.583Z,100.00
2023-01-02T08:19:19.970Z,100.00
2023-01-02T08:21:47.586Z,100.00
2023-01-02T08:24:15.005Z,100.00
2023-01-02T08:26:42.373Z,100.00
2023-01-02T08:29:09.779Z,100.00
2023-01-02T08:31:43.397Z,100.00
2023-01-02T08:34:14.438Z,100.00
2023-01-02T08:36:41.952Z,100.00
2023-01-02T08:39:09.345Z,100.00
2023-01-02T08:41:37.853Z,100.00
2023-01-02T08:44:05.406Z,100.00
2023-01-02T08:46:38.528Z,100.00
2023-01-02T08:49:09.921Z,100.00
2023-01-02T08:51:38.671Z,100.00
2023-01-02T08:54:06.181Z,100.00
2023-01-02T08:56:33.911Z,100.00
2023-01-02T08:59:05.508Z,100.00
2023-01-02T09:01:33.839Z,100.00
2023-01-02T09:04:12.095Z,100.00
2023-01-02T09:06:43.096Z,100.00
2023-01-02T09:09:12.909Z,100.00
2023-01-02T09:11:46.946Z,100.00
2023-01-02T09:14:14.375Z,100.00
2023-01-02T09:16:41.819Z,100.00
2023-01-02T09:19:09.258Z,100.00
2023-01-02T09:21:36.627Z,100.00
2023-01-02T09:24:05.877Z,100.00
2023-01-02T09:26:33.245Z,100.00
2023-01-02T09:29:00.636Z,100.00
2023-01-02T09:31:28.092Z,100.00
2023-01-02T09:33:55.547Z,100.00
2023-01-02T09:36:23.448Z,100.00
2023-01-02T09:38:54.247Z,100.00
2023-01-02T09:41:28.867Z,100.00
2023-01-02T09:43:59.482Z,100.00
2023-01-02T09:46:31.798Z,100.00
2023-01-02T09:49:00.002Z,100.00
2023-01-02T09:51:27.433Z,100.00
2023-01-02T09:53:54.822Z,100.00
2023-01-02T09:56:33.483Z,100.00
2023-01-02T09:59:06.596Z,100.00
2023-01-02T10:01:40.996Z,100.00
2023-01-02T10:04:17.849Z,100.00
2023-01-02T10:06:48.899Z,100.00
2023-01-02T10:09:21.548Z,100.00
2023-01-02T10:11:56.361Z,100.00
2023-01-02T10:14:37.442Z,100.00
2023-01-02T10:17:11.635Z,100.00
2023-01-02T10:19:42.963Z,100.00
2023-01-02T10:22:15.151Z,100.00
2023-01-02T10:24:45.836Z,100.00
2023-01-02T10:27:18.943Z,100.00
2023-01-02T10:29:52.000Z,100.00
2023-01-02T10:32:20.493Z,100.00
2023-01-02T10:34:56.686Z,100.00
2023-01-02T10:37:24.051Z,100.00
2023-01-02T10:39:51.541Z,100.00
2023-01-02T10:42:20.337Z,100.00
2023-01-02T10:44:48.107Z,100.00
2023-01-02T10:47:20.304Z,100.00
2023-01-02T10:49:48.881Z,100.00
2023-01-02T10:52:20.844Z,100.00
2023-01-02T10:54:56.775Z,100.00
2023-01-02T10:57:37.402Z,100.00
2023-01-02T11:00:07.487Z,100.00
2023-01-02T11:02:38.985Z,100.00
2023-01-02T11:05:08.553Z,100.00
2023-01-02T11:07:39.749Z,100.00
2023-01-02T11:10:23.048Z,100.00
2023-01-02T11:12:51.747Z,100.00
2023-01-02T11:15:25.895Z,100.00
2023-01-02T11:17:53.690Z,100.00
2023-01-02T11:20:27.813Z,100.00
2023-01-02T11:22:57.037Z,100.00
2023-01-02T11:25:26.431Z,100.00
2023-01-02T11:27:58.408Z,100.00
2023-01-02T11:30:37.488Z,100.00
2023-01-02T11:33:13.223Z,100.00
2023-01-02T11:35:44.689Z,100.00
2023-01-02T11:38:20.311Z,100.00
2023-01-02T11:41:02.634Z,100.00
2023-01-02T11:43:51.930Z,100.00
2023-01-02T11:46:31.130Z,100.00
2023-01-02T11:49:05.354Z,100.00
2023-01-02T11:51:34.505Z,100.00
2023-01-02T11:54:04.883Z,100.00
2023-01-02T11:56:35.809Z,100.00
2023-01-02T11:59:07.384Z,100.00
2023-01-02T12:01:47.439Z,100.00
2023-01-02T12:04:15.579Z,100.00
2023-01-02T12:06:55.352Z,99.96
2023-01-02T12:09:27.878Z,99.69
2023-01-02T12:12:09.909Z,99.73
2023-01-02T12:14:54.563Z,99.59
2023-01-02T12:17:28.706Z,99.66
2023-01-02T12:20:10.123Z,99.45
2023-01-02T12:23:10.989Z,99.63
2023-01-02T12:25:54.656Z,99.22
2023-01-02T12:28:50.887Z,98.70
2023-01-02T12:31:40.125Z,97.42
2023-01-02T12:34:19.606Z,96.69
2023-01-02T12:36:58.385Z,96.32
2023-01-02T12:39:52.067Z,96.78
2023-01-02T12:42:30.190Z,96.34
2023-01-02T12:44:59.733Z,96.44
2023-01-02T12:47:44.744Z,95.94
2023-01-02T12:50:34.243Z,96.03
2023-01-02T12:53:11.677Z,95.93
2023-01-02T12:55:47.317Z,95.56
2023-01-02T12:58:24.667Z,95.33
2023-01-02T13:01:03.489Z,95.23
2023-01-02T13:03:46.694Z,94.60
2023-01-02T13:06:46.046Z,93.65
2023-01-02T13:09:07.872Z,93.26
2023-01-02T13:11:38.598Z,93.22
2023-01-02T13:14:07.337Z,92.85
2023-01-02T13:16:36.840Z,92.65
2023-01-02T13:19:16.818Z,92.26
2023-01-02T13:21:47.986Z,92.31
2023-01-02T13:24:20.053Z,91.92
2023-01-02T13:26:47.662Z,92.26
2023-01-02T13:29:25.767Z,91.98
2023-01-02T13:31:54.961Z,91.96
2023-01-02T13:34:26.410Z,91.89
2023-01-02T13:37:03.443Z,92.18
2023-01-02T13:39:33.449Z,92.42
2023-01-02T13:42:20.907Z,92.24
2023-01-02T13:44:50.435Z,91.30
2023-01-02T13:47:25.620Z,91.58
2023-01-02T13:50:01.687Z,91.22
2023-01-02T13:52:29.110Z,90.95
2023-01-02T13:55:31.904Z,90.06
2023-01-02T13:58:37.581Z,89.96
2023-01-02T14:01:27.786Z,90.08
2023-01-02T14:04:28.465Z,89.42
2023-01-02T14:07:37.864Z,89.50
2023-01-02T14:10:43.277Z,89.07
2023-01-02T14:13:17.419Z,89.56
2023-01-02T14:16:12.674Z,89.44
2023-01-02T14:18:46.146Z,89.42
2023-01-02T14:21:14.760Z,89.27
2023-01-02T14:24:16.320Z,89.49
2023-01-02T14:26:34.960Z,89.44
2023-01-02T14:29:09.045Z,89.19
2023-01-02T14:31:36.638Z,89.18
2023-01-02T14:34:04.402Z,89.15
2023-01-02T14:36:37.880Z,89.11
2023-01-02T14:39:06.741Z,89.09
2023-01-02T14:42:29.418Z,89.44
2023-01-02T14:45:00.780Z,89.53
2023-01-02T14:47:35.656Z,89.15
2023-01-02T14:50:04.856Z,89.34
2023-01-02T14:52:34.869Z,89.25
2023-01-02T14:55:06.941Z,89.40
2023-01-02T14:57:35.883Z,89.34
2023-01-02T15:00:11.638Z,89.46
2023-01-02T15:02:41.395Z,89.18
2023-01-02T15:05:11.235Z,88.67
2023-01-02T15:07:41.222Z,88.47
2023-01-02T15:10:13.452Z,88.46
2023-01-02T15:13:02.510Z,88.17
2023-01-02T15:15:31.506Z,87.80
2023-01-02T15:18:02.548Z,88.30
2023-01-02T15:20:30.972Z,88.01
2023-01-02T15:22:59.336Z,88.17
2023-01-02T15:25:33.623Z,87.68
2023-01-02T15:28:01.020Z,88.01
2023-01-02T15:30:29.970Z,87.74
2023-01-02T15:32:57.401Z,88.23
2023-01-02T15:35:26.343Z,88.38
2023-01-02T15:37:53.757Z,88.17
2023-01-02T15:40:25.496Z,88.13
2023-01-02T15:43:12.747Z,88.21
2023-01-02T15:45:43.236Z,88.45
2023-01-02T15:48:11.101Z,88.61
2023-01-02T15:50:39.052Z,88.64
2023-01-02T15:53:08.697Z,88.86
2023-01-02T15:55:37.932Z,88.36
2023-01-02T15:58:24.684Z,88.71
2023-01-02T16:01:10.333Z,88.71
2023-01-02T16:04:01.967Z,89.19
2023-01-02T16:06:29.433Z,89.19
2023-01-02T16:08:58.581Z,89.64
2023-01-02T16:11:26.531Z,89.03
2023-01-02T16:14:16.279Z,89.63
2023-01-02T16:16:47.941Z,89.82
2023-01-02T16:19:20.438Z,90.21
2023-01-02T16:21:48.639Z,89.74
2023-01-02T16:24:19.126Z,90.12
2023-01-02T16:26:47.161Z,91.06
2023-01-02T16:29:18.185Z,90.56
2023-01-02T16:31:54.478Z,90.08
2023-01-02T16:34:35.377Z,90.78
2023-01-02T16:37:36.138Z,91.15
2023-01-02T16:41:01.807Z,90.67
2023-01-02T16:43:31.096Z,90.71
2023-01-02T16:46:00.093Z,90.79
2023-01-02T16:48:29.724Z,90.83
2023-01-02T16:50:58.539Z,90.80
2023-01-02T16:53:28.717Z,89.95
2023-01-02T16:55:56.227Z,90.43
2023-01-02T16:58:25.186Z,90.51
2023-01-02T17:00:53.199Z,90.18
2023-01-02T17:03:24.230Z,89.41
2023-01-02T17:06:00.921Z,89.72
2023-01-02T17:08:29.970Z,89.66
2023-01-02T17:10:58.515Z,89.69
2023-01-02T17:13:25.930Z,90.01
2023-01-02T17:15:53.234Z,89.87
2023-01-02T17:18:22.339Z,89.78
2023-01-02T17:20:50.047Z,90.17
2023-01-02T17:23:18.750Z,90.35
2023-01-02T17:25:46.473Z,90.16
2023-01-02T17:28:14.198Z,90.03
2023-01-02T17:30:42.922Z,90.14
2023-01-02T17:33:10.329Z,89.75
2023-01-02T17:35:39.022Z,89.78
2023-01-02T17:38:06.372Z,89.58
2023-01-02T17:40:33.997Z,90.58
2023-01-02T17:43:01.338Z,90.41
2023-01-02T17:45:28.734Z,90.13
2023-01-02T17:48:04.076Z,90.16
2023-01-02T17:50:39.000Z,90.59
2023-01-02T17:53:06.324Z,90.83
2023-01-02T17:55:33.689Z,91.60
2023-01-02T17:58:03.537Z,90.82
2023-01-02T18:00:30.893Z,90.51
2023-01-02T18:02:58.284Z,90.45
2023-01-02T18:05:25.644Z,90.00
2023-01-02T18:07:54.279Z,90.01
2023-01-02T18:10:23.719Z,90.35
2023-01-02T18:12:53.426Z,90.28
2023-01-02T18:15:22.356Z,90.06
2023-01-02T18:17:50.110Z,89.87
2023-01-02T18:20:19.557Z,89.71
2023-01-02T18:22:49.989Z,89.81
2023-01-02T18:25:21.340Z,89.68
2023-01-02T18:27:49.407Z,89.97
2023-01-02T18:30:20.813Z,90.27
2023-01-02T18:32:48.807Z,89.96
2023-01-02T18:35:55.481Z,89.77
2023-01-02T18:38:16.702Z,89.80
2023-01-02T18:40:45.853Z,89.95
2023-01-02T18:43:21.084Z,89.70
2023-01-02T18:45:50.776Z,89.63
2023-01-02T18:48:19.770Z,90.03
2023-01-02T18:50:56.463Z,89.96
2023-01-02T18:53:26.372Z,90.50
2023-01-02T18:55:59.662Z,90.40
2023-01-02T18:58:40.726Z,90.56
2023-01-02T19:01:27.465Z,90.39
2023-01-02T19:04:01.318Z,90.53
2023-01-02T19:06:29.015Z,90.84
2023-01-02T19:09:02.834Z,90.99
2023-01-02T19:11:51.450Z,90.68
2023-01-02T19:14:20.171Z,90.57
2023-01-02T19:16:47.643Z,91.08
2023-01-02T19:19:17.451Z,90.82
2023-01-02T19:21:45.109Z,91.17
2023-01-02T19:24:18.695Z,91.37
2023-01-02T19:26:48.668Z,91.58
2023-01-02T19:29:19.724Z,91.34
2023-01-02T19:31:51.356Z,91.94
2023-01-02T19:34:28.091Z,92.48
2023-01-02T19:37:16.043Z,91.75
2023-01-02T19:39:48.361Z,92.06
2023-01-02T19:42:23.514Z,92.41
2023-01-02T19:44:52.743Z,92.52
2023-01-02T19:47:21.137Z,92.04
2023-01-02T19:49:48.994Z,92.15
2023-01-02T19:52:16.417Z,92.37
2023-01-02T19:54:44.452Z,92.03
2023-01-02T19:57:12.996Z,92.37
2023-01-02T19:59:45.307Z,93.03
2023-01-02T20:02:13.734Z,93.34
2023-01-02T20:04:41.585Z,92.06
2023-01-02T20:07:09.105Z,92.00
2023-01-02T20:09:36.867Z,91.85
2023-01-02T20:12:22.427Z,90.98
2023-01-02T20:14:52.079Z,90.20
2023-01-02T20:17:20.073Z,90.29
2023-01-02T20:19:47.498Z,89.86
2023-01-02T20:22:15.069Z,89.48
2023-01-02T20:24:42.401Z,89.73
2023-01-02T20:27:09.729Z,89.65
2023-01-02T20:29:37.126Z,89.68
2023-01-02T20:32:06.157Z,90.01
2023-01-02T20:34:33.488Z,89.85
2023-01-02T20:37:00.874Z,90.29
2023-01-02T20:39:28.400Z,90.17
2023-01-02T20:41:55.721Z,90.73
2023-01-02T20:44:23.293Z,90.56
2023-01-02T20:46:50.637Z,90.24
2023-01-02T20:49:19.553Z,90.02
2023-01-02T20:51:46.877Z,90.60
2023-01-02T20:54:14.237Z,90.79
2023-01-02T20:56:41.586Z,90.77
2023-01-02T20:59:09.051Z,90.25
2023-01-02T21:01:36.571Z,90.49
2023-01-02T21:04:04.125Z,90.61
2023-01-02T21:06:32.899Z,90.35
2023-01-02T21:09:03.037Z,90.19
2023-01-02T21:11:30.980Z,90.09
2023-01-02T21:13:58.793Z,90.04
2023-01-02T21:16:26.226Z,90.32
2023-01-02T21:18:53.609Z,90.27
2023-01-02T21:21:22.357Z,89.92
2023-01-02T21:23:51.215Z,90.75
2023-01-02T21:26:21.618Z,90.96
2023-01-02T21:28:49.971Z,90.28
2023-01-02T21:31:18.900Z,89.89
2023-01-02T21:33:46.592Z,90.05
2023-01-02T21:36:15.455Z,90.00
2023-01-02T21:38:43.492Z,90.67
2023-01-02T21:41:35.134Z,89.94
2023-01-02T21:44:04.427Z,90.49
2023-01-02T21:46:31.835Z,90.05
2023-01-02T21:48:59.214Z,89.93
2023-01-02T21:51:32.253Z,90.40
2023-01-02T21:54:00.280Z,89.96
2023-01-02T21:56:28.937Z,90.22
2023-01-02T21:58:57.492Z,89.41
2023-01-02T22:01:24.999Z,89.77
2023-01-02T22:03:53.713Z,89.80
2023-01-02T22:06:21.290Z,90.33
2023-01-02T22:08:48.697Z,89.77
2023-01-02T22:11:33.348Z,89.67
2023-01-02T22:14:04.014Z,89.43
2023-01-02T22:16:31.554Z,89.98
2023-01-02T22:18:58.987Z,89.71
2023-01-02T22:21:26.297Z,89.06
2023-01-02T22:23:53.662Z,89.78
2023-01-02T22:26:21.000Z,89.74
2023-01-02T22:28:48.358Z,89.80
2023-01-02T22:31:17.104Z,90.00
2023-01-02T22:33:44.645Z,89.53
2023-01-02T22:36:12.029Z,89.47
2023-01-02T22:38:49.312Z,89.78
2023-01-02T22:41:29.548Z,89.68
2023-01-02T22:43:56.974Z,89.16
2023-01-02T22:46:31.331Z,89.41
2023-01-02T22:48:59.297Z,89.13
2023-01-02T22:51:57.740Z,88.99
2023-01-02T22:54:15.871Z,88.44
2023-01-02T22:56:43.473Z,88.49
2023-01-02T22:59:11.231Z,88.02
2023-01-02T23:01:41.188Z,88.28
2023-01-02T23:04:15.070Z,88.35
2023-01-02T23:07:05.640Z,88.58
2023-01-02T23:09:29.805Z,88.94
2023-01-02T23:11:57.186Z,88.76
2023-01-02T23:14:24.560Z,88.45
2023-01-02T23:17:12.694Z,88.95
2023-01-02T23:19:40.064Z,88.28
2023-01-02T23:22:07.435Z,88.32
2023-01-02T23:24:36.870Z,87.88
2023-01-02T23:27:05.823Z,87.78
2023-01-02T23:29:33.297Z,87.89
2023-01-02T23:32:04.127Z,88.37
2023-01-02T23:34:31.801Z,88.14
2023-01-02T23:37:00.139Z,88.14
2023-01-02T23:39:30.870Z,88.53
2023-01-02T23:41:58.741Z,87.69
2023-01-02T23:44:26.669Z,87.86
2023-01-02T23:46:54.362Z,87.91
2023-01-02T23:49:24.236Z,87.41
2023-01-02T23:51:51.656Z,87.60
2023-01-02T23:54:19.747Z,87.21
2023-01-02T23:56:49.245Z,87.44
2023-01-02T23:59:18.565Z,88.00
